Aviation Digital Data Service (ADDS)

Output produced by METARs form (1834 UTC 18 April 2019)
found at http://www.aviationweather.gov/metar/data/
 
METAR text: HTDA 181400Z 16006KT 9999 FEW012 FEW015CB SCT080 27/24 Q1012 NOSIG
Conditions at: HTDA (DAR ES SALAAM AR, TZ) observed 1400 UTC 18 April 2019
Temperature: 27.0°C (81°F)
Dewpoint: 24.0°C (75°F) [RH = 84%]
Pressure (altimeter): 29.88 inches Hg (1012.0 mb)
Winds: from the SSE (160 degrees) at 7 MPH (6 knots; 3.1 m/s)
Visibility: 6 or more miles (10+ km)
Ceiling: at least 12,000 feet AGL
Clouds: few clouds at 1200 feet AGL
few clouds at 1500 feet AGL
scattered clouds at 8000 feet AGL
Weather: no significant weather observed at this time

METAR text: HTDA 181300Z 27005KT 9999 SCT011 FEW013CB 25/23 Q1012 NOSIG
Conditions at: HTDA (DAR ES SALAAM AR, TZ) observed 1300 UTC 18 April 2019
Temperature: 25.0°C (77°F)
Dewpoint: 23.0°C (73°F) [RH = 89%]
Pressure (altimeter): 29.88 inches Hg (1012.0 mb)
Winds: from the W (270 degrees) at 6 MPH (5 knots; 2.6 m/s)
Visibility: 6 or more miles (10+ km)
Ceiling: at least 12,000 feet AGL
Clouds: scattered clouds at 1100 feet AGL
few clouds at 1300 feet AGL
Weather: no significant weather observed at this time

METAR text: HTDA 181200Z 25003KT 3000 -TSRA BKN012 FEW014CB BKN070 25/25 Q1013 NOSIG
Conditions at: HTDA (DAR ES SALAAM AR, TZ) observed 1200 UTC 18 April 2019
Temperature: 25.0°C (77°F)
Dewpoint: 25.0°C (77°F) [RH = 100%]
Pressure (altimeter): 29.91 inches Hg (1013.0 mb)
Winds: from the WSW (250 degrees) at 3 MPH (3 knots; 1.5 m/s)
Visibility: 1.86 miles (2.99 km)
Ceiling: 1200 feet AGL
Clouds: broken clouds at 1200 feet AGL
few clouds at 1400 feet AGL
broken clouds at 7000 feet AGL
Weather: -TSRA  (light rain associated with thunderstorm(s))

METAR text: HTDA 181100Z 24005KT 8000 TS BKN012 FEW015CB 28/26 Q1013 BECMG TS/SHRA
Conditions at: HTDA (DAR ES SALAAM AR, TZ) observed 1100 UTC 18 April 2019
Temperature: 28.0°C (82°F)
Dewpoint: 26.0°C (79°F) [RH = 89%]
Pressure (altimeter): 29.91 inches Hg (1013.0 mb)
Winds: from the WSW (240 degrees) at 6 MPH (5 knots; 2.6 m/s)
Visibility: 5 miles ( 8 km)
Ceiling: 1200 feet AGL
Clouds: broken clouds at 1200 feet AGL
few clouds at 1500 feet AGL
Weather: TS  (thunderstorm)

METAR text: HTDA 181000Z 17005KT 9999 TS FEW017 BKN018 FEW019CB 31/26 Q1013 NOSIG
Conditions at: HTDA (DAR ES SALAAM AR, TZ) observed 1000 UTC 18 April 2019
Temperature: 31.0°C (88°F)
Dewpoint: 26.0°C (79°F) [RH = 75%]
Pressure (altimeter): 29.91 inches Hg (1013.0 mb)
Winds: from the S (170 degrees) at 6 MPH (5 knots; 2.6 m/s)
Visibility: 6 or more miles (10+ km)
Ceiling: 1800 feet AGL
Clouds: few clouds at 1700 feet AGL
broken clouds at 1800 feet AGL
few clouds at 1900 feet AGL
Weather: TS  (thunderstorm)

METAR text: HTDA 180900Z 14010KT 8000 -RA BKN014 FEW016CB 30/26 Q1014 NOSIG
Conditions at: HTDA (DAR ES SALAAM AR, TZ) observed 0900 UTC 18 April 2019
Temperature: 30.0°C (86°F)
Dewpoint: 26.0°C (79°F) [RH = 79%]
Pressure (altimeter): 29.94 inches Hg (1014.0 mb)
Winds: from the SE (140 degrees) at 12 MPH (10 knots; 5.1 m/s)
Visibility: 5 miles ( 8 km)
Ceiling: 1400 feet AGL
Clouds: broken clouds at 1400 feet AGL
few clouds at 1600 feet AGL
Weather: -RA  (light rain)

METAR text: HTDA 180800Z 16008KT 9999 TS FEW015 BKN016 FEW017CB 31/26 Q1014 NOSIG
Conditions at: HTDA (DAR ES SALAAM AR, TZ) observed 0800 UTC 18 April 2019
Temperature: 31.0°C (88°F)
Dewpoint: 26.0°C (79°F) [RH = 75%]
Pressure (altimeter): 29.94 inches Hg (1014.0 mb)
Winds: from the SSE (160 degrees) at 9 MPH (8 knots; 4.1 m/s)
Visibility: 6 or more miles (10+ km)
Ceiling: 1600 feet AGL
Clouds: few clouds at 1500 feet AGL
broken clouds at 1600 feet AGL
few clouds at 1700 feet AGL
Weather: TS  (thunderstorm)

METAR text: HTDA 180700Z 18005KT 9999 FEW013 BKN014 FEW015CB 30/26 Q1015 NOSIG
Conditions at: HTDA (DAR ES SALAAM AR, TZ) observed 0700 UTC 18 April 2019
Temperature: 30.0°C (86°F)
Dewpoint: 26.0°C (79°F) [RH = 79%]
Pressure (altimeter): 29.97 inches Hg (1015.0 mb)
Winds: from the S (180 degrees) at 6 MPH (5 knots; 2.6 m/s)
Visibility: 6 or more miles (10+ km)
Ceiling: 1400 feet AGL
Clouds: few clouds at 1300 feet AGL
broken clouds at 1400 feet AGL
few clouds at 1500 feet AGL
Weather: no significant weather observed at this time

METAR text: HTDA 180600Z 16005KT 9999 SCT013 FEW015CB 29/26 Q1015 NOSIG
Conditions at: HTDA (DAR ES SALAAM AR, TZ) observed 0600 UTC 18 April 2019
Temperature: 29.0°C (84°F)
Dewpoint: 26.0°C (79°F) [RH = 84%]
Pressure (altimeter): 29.97 inches Hg (1015.0 mb)
Winds: from the SSE (160 degrees) at 6 MPH (5 knots; 2.6 m/s)
Visibility: 6 or more miles (10+ km)
Ceiling: at least 12,000 feet AGL
Clouds: scattered clouds at 1300 feet AGL
few clouds at 1500 feet AGL
Weather: no significant weather observed at this time

METAR text: HTDA 180500Z 21005KT 9999 SCT013 FEW014CB 27/26 Q1013 NOSIG
Conditions at: HTDA (DAR ES SALAAM AR, TZ) observed 0500 UTC 18 April 2019
Temperature: 27.0°C (81°F)
Dewpoint: 26.0°C (79°F) [RH = 94%]
Pressure (altimeter): 29.91 inches Hg (1013.0 mb)
Winds: from the SSW (210 degrees) at 6 MPH (5 knots; 2.6 m/s)
Visibility: 6 or more miles (10+ km)
Ceiling: at least 12,000 feet AGL
Clouds: scattered clouds at 1300 feet AGL
few clouds at 1400 feet AGL
Weather: no significant weather observed at this time

METAR text: HTDA 180400Z 16004KT 9999 VCTS BKN012 FEW013CB 25/25 Q1013 NOSIG
Conditions at: HTDA (DAR ES SALAAM AR, TZ) observed 0400 UTC 18 April 2019
Temperature: 25.0°C (77°F)
Dewpoint: 25.0°C (77°F) [RH = 100%]
Pressure (altimeter): 29.91 inches Hg (1013.0 mb)
Winds: from the SSE (160 degrees) at 5 MPH (4 knots; 2.1 m/s)
Visibility: 6 or more miles (10+ km)
Ceiling: 1200 feet AGL
Clouds: broken clouds at 1200 feet AGL
few clouds at 1300 feet AGL
Weather: VCTS  (thunderstorm in vicinity)

METAR text: HTDA 180300Z 21003KT 9999 SCT012 FEW013CB 26/25 Q1013 NOSIG
Conditions at: HTDA (DAR ES SALAAM AR, TZ) observed 0300 UTC 18 April 2019
Temperature: 26.0°C (79°F)
Dewpoint: 25.0°C (77°F) [RH = 94%]
Pressure (altimeter): 29.91 inches Hg (1013.0 mb)
Winds: from the SSW (210 degrees) at 3 MPH (3 knots; 1.5 m/s)
Visibility: 6 or more miles (10+ km)
Ceiling: at least 12,000 feet AGL
Clouds: scattered clouds at 1200 feet AGL
few clouds at 1300 feet AGL
Weather: no significant weather observed at this time

METAR text: HTDA 180200Z 21005KT 9999 SCT012 FEW013CB 25/25 Q1012 NOSIG
Conditions at: HTDA (DAR ES SALAAM AR, TZ) observed 0200 UTC 18 April 2019
Temperature: 25.0°C (77°F)
Dewpoint: 25.0°C (77°F) [RH = 100%]
Pressure (altimeter): 29.88 inches Hg (1012.0 mb)
Winds: from the SSW (210 degrees) at 6 MPH (5 knots; 2.6 m/s)
Visibility: 6 or more miles (10+ km)
Ceiling: at least 12,000 feet AGL
Clouds: scattered clouds at 1200 feet AGL
few clouds at 1300 feet AGL
Weather: no significant weather observed at this time

METAR text: HTDA 180100Z 00000KT 9999 SCT012 FEW013CB 25/25 Q1012 NOSIG
Conditions at: HTDA (DAR ES SALAAM AR, TZ) observed 0100 UTC 18 April 2019
Temperature: 25.0°C (77°F)
Dewpoint: 25.0°C (77°F) [RH = 100%]
Pressure (altimeter): 29.88 inches Hg (1012.0 mb)
Winds: calm
Visibility: 6 or more miles (10+ km)
Ceiling: at least 12,000 feet AGL
Clouds: scattered clouds at 1200 feet AGL
few clouds at 1300 feet AGL
Weather: no significant weather observed at this time

METAR text: HTDA 180000Z 00000KT 9999 SCT012 FEW013CB 25/25 Q1012 NOSIG
Conditions at: HTDA (DAR ES SALAAM AR, TZ) observed 0000 UTC 18 April 2019
Temperature: 25.0°C (77°F)
Dewpoint: 25.0°C (77°F) [RH = 100%]
Pressure (altimeter): 29.88 inches Hg (1012.0 mb)
Winds: calm
Visibility: 6 or more miles (10+ km)
Ceiling: at least 12,000 feet AGL
Clouds: scattered clouds at 1200 feet AGL
few clouds at 1300 feet AGL
Weather: no significant weather observed at this time

METAR text: HTDA 172300Z 19004KT 9999 SCT012 FEW013CB 26/25 Q1012 NOSIG
Conditions at: HTDA (DAR ES SALAAM AR, TZ) observed 2300 UTC 17 April 2019
Temperature: 26.0°C (79°F)
Dewpoint: 25.0°C (77°F) [RH = 94%]
Pressure (altimeter): 29.88 inches Hg (1012.0 mb)
Winds: from the S (190 degrees) at 5 MPH (4 knots; 2.1 m/s)
Visibility: 6 or more miles (10+ km)
Ceiling: at least 12,000 feet AGL
Clouds: scattered clouds at 1200 feet AGL
few clouds at 1300 feet AGL
Weather: no significant weather observed at this time

METAR text: HTDA 172200Z 19004KT 9999 SCT012 FEW013CB 26/25 Q1012 NOSIG
Conditions at: HTDA (DAR ES SALAAM AR, TZ) observed 2200 UTC 17 April 2019
Temperature: 26.0°C (79°F)
Dewpoint: 25.0°C (77°F) [RH = 94%]
Pressure (altimeter): 29.88 inches Hg (1012.0 mb)
Winds: from the S (190 degrees) at 5 MPH (4 knots; 2.1 m/s)
Visibility: 6 or more miles (10+ km)
Ceiling: at least 12,000 feet AGL
Clouds: scattered clouds at 1200 feet AGL
few clouds at 1300 feet AGL
Weather: no significant weather observed at this time

METAR text: HTDA 172100Z 14005KT 9999 SCT012 FEW013CB 26/25 Q1013 NOSIG
Conditions at: HTDA (DAR ES SALAAM AR, TZ) observed 2100 UTC 17 April 2019
Temperature: 26.0°C (79°F)
Dewpoint: 25.0°C (77°F) [RH = 94%]
Pressure (altimeter): 29.91 inches Hg (1013.0 mb)
Winds: from the SE (140 degrees) at 6 MPH (5 knots; 2.6 m/s)
Visibility: 6 or more miles (10+ km)
Ceiling: at least 12,000 feet AGL
Clouds: scattered clouds at 1200 feet AGL
few clouds at 1300 feet AGL
Weather: no significant weather observed at this time

METAR text: HTDA 172000Z 00000KT 9999 FEW013 FEW014CB 27/25 Q1013 NOSIG
Conditions at: HTDA (DAR ES SALAAM AR, TZ) observed 2000 UTC 17 April 2019
Temperature: 27.0°C (81°F)
Dewpoint: 25.0°C (77°F) [RH = 89%]
Pressure (altimeter): 29.91 inches Hg (1013.0 mb)
Winds: calm
Visibility: 6 or more miles (10+ km)
Ceiling: at least 12,000 feet AGL
Clouds: few clouds at 1300 feet AGL
few clouds at 1400 feet AGL
Weather: no significant weather observed at this time

METAR text: HTDA 171900Z 19004KT 9999 FEW013 FEW014CB 27/26 Q1013 NOSIG
Conditions at: HTDA (DAR ES SALAAM AR, TZ) observed 1900 UTC 17 April 2019
Temperature: 27.0°C (81°F)
Dewpoint: 26.0°C (79°F) [RH = 94%]
Pressure (altimeter): 29.91 inches Hg (1013.0 mb)
Winds: from the S (190 degrees) at 5 MPH (4 knots; 2.1 m/s)
Visibility: 6 or more miles (10+ km)
Ceiling: at least 12,000 feet AGL
Clouds: few clouds at 1300 feet AGL
few clouds at 1400 feet AGL
Weather: no significant weather observed at this time

METAR text: HTDA 171800Z 13003KT 9999 FEW013 FEW014CB 27/26 Q1012 NOSIG
Conditions at: HTDA (DAR ES SALAAM AR, TZ) observed 1800 UTC 17 April 2019
Temperature: 27.0°C (81°F)
Dewpoint: 26.0°C (79°F) [RH = 94%]
Pressure (altimeter): 29.88 inches Hg (1012.0 mb)
Winds: from the SE (130 degrees) at 3 MPH (3 knots; 1.5 m/s)
Visibility: 6 or more miles (10+ km)
Ceiling: at least 12,000 feet AGL
Clouds: few clouds at 1300 feet AGL
few clouds at 1400 feet AGL
Weather: no significant weather observed at this time

METAR text: HTDA 171700Z 10004KT 9999 FEW013 FEW014CB 28/25 Q1012 NOSIG
Conditions at: HTDA (DAR ES SALAAM AR, TZ) observed 1700 UTC 17 April 2019
Temperature: 28.0°C (82°F)
Dewpoint: 25.0°C (77°F) [RH = 84%]
Pressure (altimeter): 29.88 inches Hg (1012.0 mb)
Winds: from the E (100 degrees) at 5 MPH (4 knots; 2.1 m/s)
Visibility: 6 or more miles (10+ km)
Ceiling: at least 12,000 feet AGL
Clouds: few clouds at 1300 feet AGL
few clouds at 1400 feet AGL
Weather: no significant weather observed at this time

METAR text: HTDA 171600Z 09007KT 9999 FEW015 FEW016CB 29/25 Q1011 NOSIG
Conditions at: HTDA (DAR ES SALAAM AR, TZ) observed 1600 UTC 17 April 2019
Temperature: 29.0°C (84°F)
Dewpoint: 25.0°C (77°F) [RH = 79%]
Pressure (altimeter): 29.85 inches Hg (1011.0 mb)
Winds: from the E (90 degrees) at 8 MPH (7 knots; 3.6 m/s)
Visibility: 6 or more miles (10+ km)
Ceiling: at least 12,000 feet AGL
Clouds: few clouds at 1500 feet AGL
few clouds at 1600 feet AGL
Weather: no significant weather observed at this time

METAR text: HTDA 171500Z 07006KT 9999 FEW016 FEW017CB 31/25 Q1011 NOSIG
Conditions at: HTDA (DAR ES SALAAM AR, TZ) observed 1500 UTC 17 April 2019
Temperature: 31.0°C (88°F)
Dewpoint: 25.0°C (77°F) [RH = 71%]
Pressure (altimeter): 29.85 inches Hg (1011.0 mb)
Winds: from the ENE (70 degrees) at 7 MPH (6 knots; 3.1 m/s)
Visibility: 6 or more miles (10+ km)
Ceiling: at least 12,000 feet AGL
Clouds: few clouds at 1600 feet AGL
few clouds at 1700 feet AGL
Weather: no significant weather observed at this time

METAR text: HTDA 171300Z 04010KT 9999 BKN018 FEW020CB 32/26 Q1010 NOSIG
Conditions at: HTDA (DAR ES SALAAM AR, TZ) observed 1300 UTC 17 April 2019
Temperature: 32.0°C (90°F)
Dewpoint: 26.0°C (79°F) [RH = 71%]
Pressure (altimeter): 29.82 inches Hg (1010.0 mb)
Winds: from the NE (40 degrees) at 12 MPH (10 knots; 5.1 m/s)
Visibility: 6 or more miles (10+ km)
Ceiling: 1800 feet AGL
Clouds: broken clouds at 1800 feet AGL
few clouds at 2000 feet AGL
Weather: no significant weather observed at this time

METAR text: HTDA 171100Z 06010KT 9999 BKN020 FEW022CB 33/27 Q1011 NOSIG
Conditions at: HTDA (DAR ES SALAAM AR, TZ) observed 1100 UTC 17 April 2019
Temperature: 33.0°C (91°F)
Dewpoint: 27.0°C (81°F) [RH = 71%]
Pressure (altimeter): 29.85 inches Hg (1011.0 mb)
Winds: from the ENE (60 degrees) at 12 MPH (10 knots; 5.1 m/s)
Visibility: 6 or more miles (10+ km)
Ceiling: 2000 feet AGL
Clouds: broken clouds at 2000 feet AGL
few clouds at 2200 feet AGL
Weather: no significant weather observed at this time

METAR text: HTDA 171000Z 22012KT 9999 BKN019 FEW022CB 32/27 Q1012 NOSIG
Conditions at: HTDA (DAR ES SALAAM AR, TZ) observed 1000 UTC 17 April 2019
Temperature: 32.0°C (90°F)
Dewpoint: 27.0°C (81°F) [RH = 75%]
Pressure (altimeter): 29.88 inches Hg (1012.0 mb)
Winds: from the SW (220 degrees) at 14 MPH (12 knots; 6.2 m/s)
Visibility: 6 or more miles (10+ km)
Ceiling: 1900 feet AGL
Clouds: broken clouds at 1900 feet AGL
few clouds at 2200 feet AGL
Weather: no significant weather observed at this time

METAR text: HTDA 170800Z 23004KT 9999 BKN016 FEW019 32/27 Q1013 NOSIG
Conditions at: HTDA (DAR ES SALAAM AR, TZ) observed 0800 UTC 17 April 2019
Temperature: 32.0°C (90°F)
Dewpoint: 27.0°C (81°F) [RH = 75%]
Pressure (altimeter): 29.91 inches Hg (1013.0 mb)
Winds: from the SW (230 degrees) at 5 MPH (4 knots; 2.1 m/s)
Visibility: 6 or more miles (10+ km)
Ceiling: 1600 feet AGL
Clouds: broken clouds at 1600 feet AGL
few clouds at 1900 feet AGL
Weather: no significant weather observed at this time